createdAt,value
2019-05-09T00:00:35.351Z,11.30
2019-05-09T00:01:41.039Z,11.20
2019-05-09T00:02:48.631Z,11.20
2019-05-09T00:04:19.440Z,11.20
2019-05-09T00:05:25.464Z,11.20
2019-05-09T00:06:30.534Z,11.20
2019-05-09T00:07:37.828Z,11.10
2019-05-09T00:08:50.111Z,11.10
2019-05-09T00:10:00.924Z,11.10
2019-05-09T00:11:08.728Z,11.10
2019-05-09T00:12:14.400Z,11.00
2019-05-09T00:13:26.551Z,11.00
2019-05-09T00:14:37.564Z,11.00
2019-05-09T00:15:45.626Z,11.00
2019-05-09T00:17:15.239Z,11.00
2019-05-09T00:18:24.400Z,11.00
2019-05-09T00:19:33.199Z,11.00
2019-05-09T00:21:01.186Z,11.00
2019-05-09T00:22:16.667Z,11.00
2019-05-09T00:23:13.636Z,10.90
2019-05-09T00:24:23.756Z,10.90
2019-05-09T00:25:43.443Z,10.90
2019-05-09T00:26:48.362Z,10.90
2019-05-09T00:27:55.951Z,10.90
2019-05-09T00:29:07.181Z,10.90
2019-05-09T00:30:23.179Z,10.80
2019-05-09T00:31:46.092Z,10.80
2019-05-09T00:32:50.806Z,10.80
2019-05-09T00:34:01.028Z,10.80
2019-05-09T00:35:27.007Z,10.70
2019-05-09T00:36:33.451Z,10.70
2019-05-09T00:38:04.858Z,10.80
2019-05-09T00:39:10.099Z,10.80
2019-05-09T00:40:15.177Z,10.80
2019-05-09T00:41:21.156Z,10.80
2019-05-09T00:42:26.023Z,10.80
2019-05-09T00:43:34.227Z,10.80
2019-05-09T00:44:43.087Z,10.80
2019-05-09T00:46:06.243Z,10.70
2019-05-09T00:47:24.005Z,10.80
2019-05-09T00:48:58.107Z,10.80
2019-05-09T00:50:05.092Z,10.80
2019-05-09T00:51:09.337Z,10.90
2019-05-09T00:52:15.747Z,10.90
2019-05-09T00:53:23.577Z,10.90
2019-05-09T00:54:33.524Z,11.00
2019-05-09T00:55:38.037Z,10.90
2019-05-09T00:56:43.620Z,10.90
2019-05-09T00:57:59.371Z,10.90
2019-05-09T00:59:06.491Z,10.90
2019-05-09T01:00:24.358Z,10.80
2019-05-09T01:01:29.232Z,10.80
2019-05-09T01:02:34.138Z,10.80
2019-05-09T01:03:38.815Z,10.80
2019-05-09T01:04:43.837Z,10.70
2019-05-09T01:05:50.328Z,10.70
2019-05-09T01:06:55.056Z,10.70
2019-05-09T01:08:04.074Z,10.70
2019-05-09T01:09:08.708Z,10.70
2019-05-09T01:10:13.543Z,10.70
2019-05-09T01:11:18.483Z,10.70
2019-05-09T01:12:23.585Z,10.70
2019-05-09T01:13:28.387Z,10.60
2019-05-09T01:14:33.928Z,10.60
2019-05-09T01:15:38.887Z,10.50
2019-05-09T01:16:44.133Z,10.50
2019-05-09T01:17:53.439Z,10.50
2019-05-09T01:18:57.691Z,10.50
2019-05-09T01:20:03.376Z,10.50
2019-05-09T01:21:08.296Z,10.40
2019-05-09T01:22:13.302Z,10.40
2019-05-09T01:23:19.807Z,10.40
2019-05-09T01:24:24.823Z,10.40
2019-05-09T01:25:29.733Z,10.40
2019-05-09T01:26:34.587Z,10.40
2019-05-09T01:27:39.360Z,10.40
2019-05-09T01:28:44.347Z,10.30
2019-05-09T01:29:49.166Z,10.30
2019-05-09T01:30:53.884Z,10.30
2019-05-09T01:32:00.170Z,10.30
2019-05-09T01:33:24.256Z,10.30
2019-05-09T01:34:33.090Z,10.20
2019-05-09T01:35:37.962Z,10.20
2019-05-09T01:37:00.173Z,10.20
2019-05-09T01:38:04.916Z,10.20
2019-05-09T01:39:09.964Z,10.20
2019-05-09T01:40:15.185Z,10.10
2019-05-09T01:41:27.985Z,10.10
2019-05-09T01:42:26.792Z,10.10
2019-05-09T01:43:33.569Z,10.10
2019-05-09T01:44:37.706Z,10.00
2019-05-09T01:45:43.196Z,10.10
2019-05-09T01:46:48.924Z,10.20
2019-05-09T01:47:53.887Z,10.10
2019-05-09T01:48:59.196Z,10.10
2019-05-09T01:50:04.034Z,10.10
2019-05-09T01:51:10.798Z,10.10
2019-05-09T01:52:15.492Z,10.20
2019-05-09T01:53:25.544Z,10.10
2019-05-09T01:54:30.561Z,10.10
2019-05-09T01:56:09.235Z,10.10
2019-05-09T01:57:15.613Z,10.10
2019-05-09T01:58:20.239Z,10.10
2019-05-09T01:59:25.206Z,10.10
2019-05-09T02:00:30.144Z,10.10
2019-05-09T02:01:35.185Z,10.10
2019-05-09T02:02:39.909Z,10.10
2019-05-09T02:03:44.579Z,10.10
2019-05-09T02:04:49.409Z,10.10
2019-05-09T02:05:54.059Z,10.10
2019-05-09T02:06:59.137Z,10.10
2019-05-09T02:08:03.825Z,10.10
2019-05-09T02:09:17.136Z,10.00
2019-05-09T02:10:37.759Z,10.00
2019-05-09T02:11:45.414Z,10.00
2019-05-09T02:12:48.907Z,10.00
2019-05-09T02:13:54.013Z,10.10
2019-05-09T02:15:13.098Z,10.10
2019-05-09T02:16:33.751Z,10.00
2019-05-09T02:18:05.079Z,10.00
2019-05-09T02:19:28.104Z,10.00
2019-05-09T02:20:33.572Z,10.00
2019-05-09T02:21:39.210Z,10.00
2019-05-09T02:22:46.858Z,10.00
2019-05-09T02:23:54.078Z,10.00
2019-05-09T02:24:59.217Z,10.00
2019-05-09T02:26:05.140Z,10.00
2019-05-09T02:27:09.775Z,10.00
2019-05-09T02:28:14.429Z,10.00
2019-05-09T02:29:19.070Z,10.00
2019-05-09T02:30:25.415Z,10.00
2019-05-09T02:31:30.747Z,10.00
2019-05-09T02:32:35.626Z,10.00
2019-05-09T02:33:40.313Z,10.00
2019-05-09T02:34:47.865Z,10.00
2019-05-09T02:35:57.195Z,9.90
2019-05-09T02:36:58.911Z,9.90
2019-05-09T02:38:03.568Z,9.90
2019-05-09T02:39:09.223Z,9.90
2019-05-09T02:40:21.574Z,9.90
2019-05-09T02:41:28.640Z,9.90
2019-05-09T02:42:32.741Z,9.90
2019-05-09T02:43:38.846Z,9.80
2019-05-09T02:44:43.941Z,9.80
2019-05-09T02:45:59.579Z,9.80
2019-05-09T02:47:09.299Z,9.80
2019-05-09T02:48:14.041Z,9.80
2019-05-09T02:49:19.275Z,9.70
2019-05-09T02:50:24.186Z,9.70
2019-05-09T02:51:29.363Z,9.70
2019-05-09T02:52:34.209Z,9.70
2019-05-09T02:53:39.634Z,9.80
2019-05-09T02:54:45.006Z,9.80
2019-05-09T02:55:49.779Z,9.80
2019-05-09T02:56:54.856Z,9.80
2019-05-09T02:58:00.533Z,9.70
2019-05-09T02:59:24.453Z,9.80
2019-05-09T03:00:48.197Z,9.70
2019-05-09T03:02:09.656Z,9.80
2019-05-09T03:03:19.978Z,9.70
2019-05-09T03:04:28.169Z,9.70
2019-05-09T03:05:31.663Z,9.80
2019-05-09T03:06:38.912Z,9.80
2019-05-09T03:07:52.180Z,9.80
2019-05-09T03:08:59.434Z,9.80
2019-05-09T03:10:03.909Z,9.80
2019-05-09T03:11:09.917Z,9.80
2019-05-09T03:12:30.459Z,9.80
2019-05-09T03:13:24.175Z,9.80
2019-05-09T03:14:28.917Z,9.80
2019-05-09T03:15:35.227Z,9.80
2019-05-09T03:16:40.167Z,9.80
2019-05-09T03:17:49.044Z,9.80
2019-05-09T03:18:52.017Z,9.80
2019-05-09T03:19:58.644Z,9.80
2019-05-09T03:21:19.065Z,9.90
2019-05-09T03:22:23.655Z,9.80
2019-05-09T03:23:28.652Z,9.80
2019-05-09T03:24:33.589Z,9.80
2019-05-09T03:25:40.931Z,9.80
2019-05-09T03:26:52.208Z,9.80
2019-05-09T03:28:02.236Z,9.80
2019-05-09T03:29:31.934Z,9.80
2019-05-09T03:30:39.888Z,9.80
2019-05-09T03:31:52.714Z,9.80
2019-05-09T03:32:59.689Z,9.90
2019-05-09T03:34:04.185Z,9.90
2019-05-09T03:35:09.523Z,9.90
2019-05-09T03:36:14.240Z,9.90
2019-05-09T03:37:19.303Z,9.90
2019-05-09T03:38:25.298Z,9.90
2019-05-09T03:39:30.229Z,9.90
2019-05-09T03:40:37.751Z,9.90
2019-05-09T03:41:42.842Z,9.90
2019-05-09T03:42:48.643Z,9.90
2019-05-09T03:43:53.723Z,10.00
2019-05-09T03:44:59.244Z,10.00
2019-05-09T03:46:11.951Z,10.00
2019-05-09T03:47:41.961Z,10.00
2019-05-09T03:48:49.552Z,10.00
2019-05-09T03:50:13.697Z,10.00
2019-05-09T03:51:18.454Z,10.00
2019-05-09T03:52:23.151Z,10.00
2019-05-09T03:53:27.828Z,9.90
2019-05-09T03:56:43.948Z,9.90
2019-05-09T03:57:55.539Z,9.90
2019-05-09T03:59:00.667Z,9.90
2019-05-09T04:00:07.709Z,9.90
2019-05-09T04:01:12.720Z,9.90
2019-05-09T04:02:21.694Z,9.90
2019-05-09T04:03:27.638Z,9.90
2019-05-09T04:04:32.637Z,9.90
2019-05-09T04:05:38.013Z,9.80
2019-05-09T04:06:42.767Z,9.80
2019-05-09T04:07:47.978Z,9.90
2019-05-09T04:08:54.083Z,9.90
2019-05-09T04:09:59.484Z,9.90
2019-05-09T04:11:04.420Z,9.90
2019-05-09T04:12:09.224Z,9.90
2019-05-09T04:13:13.984Z,9.90
2019-05-09T04:14:22.172Z,9.90
2019-05-09T04:15:27.544Z,9.90
2019-05-09T04:16:32.441Z,9.90
2019-05-09T04:17:43.977Z,9.90
2019-05-09T04:18:52.496Z,9.90
2019-05-09T04:19:58.199Z,9.90
2019-05-09T04:21:09.825Z,9.90
2019-05-09T04:22:14.637Z,9.90
2019-05-09T04:23:20.529Z,9.90
2019-05-09T04:24:27.992Z,9.90
2019-05-09T04:25:34.520Z,9.90
2019-05-09T04:26:45.081Z,9.90
2019-05-09T04:27:50.512Z,9.90
2019-05-09T04:28:57.825Z,9.90
2019-05-09T04:30:06.109Z,9.90
2019-05-09T04:31:48.330Z,9.90
2019-05-09T04:32:53.322Z,9.90
2019-05-09T04:33:58.298Z,9.90
2019-05-09T04:35:29.432Z,9.90
2019-05-09T04:36:40.584Z,10.00
2019-05-09T04:37:45.350Z,10.00
2019-05-09T04:38:50.092Z,10.00
2019-05-09T04:40:01.595Z,10.00
2019-05-09T04:41:01.360Z,10.00
2019-05-09T04:42:08.389Z,10.00
2019-05-09T04:43:18.768Z,10.10
2019-05-09T04:44:28.454Z,10.10
2019-05-09T04:45:53.453Z,10.10
2019-05-09T04:47:00.155Z,10.10
2019-05-09T04:48:04.875Z,10.10
2019-05-09T04:49:09.604Z,10.10
2019-05-09T04:50:23.095Z,10.10
2019-05-09T04:51:22.892Z,10.10
2019-05-09T04:52:27.970Z,10.10
2019-05-09T04:53:33.153Z,10.10
2019-05-09T04:54:38.551Z,10.10
2019-05-09T04:55:43.412Z,10.10
2019-05-09T04:56:48.220Z,10.10
2019-05-09T04:57:52.960Z,10.10
2019-05-09T04:58:58.451Z,10.10
2019-05-09T05:00:04.053Z,10.10
2019-05-09T05:01:28.149Z,10.10
2019-05-09T05:02:48.474Z,10.10
2019-05-09T05:03:57.259Z,10.10
2019-05-09T05:05:02.419Z,10.10
2019-05-09T05:06:10.699Z,10.10
2019-05-09T05:07:18.108Z,10.10
2019-05-09T05:08:30.056Z,10.10
2019-05-09T05:18:49.916Z,10.10
2019-05-09T05:19:55.372Z,10.10
2019-05-09T05:21:00.416Z,10.10
2019-05-09T05:22:14.759Z,10.10
2019-05-09T05:23:27.572Z,10.10
2019-05-09T05:24:38.167Z,10.10
2019-05-09T05:25:50.294Z,10.10
2019-05-09T05:26:57.759Z,10.10
2019-05-09T05:28:01.756Z,10.10
2019-05-09T05:29:08.400Z,10.10
2019-05-09T05:30:17.827Z,10.10
2019-05-09T05:31:21.892Z,10.10
2019-05-09T05:32:38.753Z,10.10
2019-05-09T05:34:18.130Z,10.10
2019-05-09T05:35:57.372Z,10.10
2019-05-09T05:37:02.462Z,10.10
2019-05-09T05:39:47.748Z,10.20
2019-05-09T05:40:52.840Z,10.20
2019-05-09T05:41:58.429Z,10.30
2019-05-09T05:43:03.239Z,10.30
2019-05-09T05:44:14.635Z,10.30
2019-05-09T05:45:19.540Z,10.30
2019-05-09T05:46:58.632Z,10.40
2019-05-09T05:48:27.942Z,10.40
2019-05-09T05:49:35.303Z,10.40
2019-05-09T05:50:43.271Z,10.50
2019-05-09T05:51:50.109Z,10.50
2019-05-09T05:52:54.999Z,10.50
2019-05-09T05:54:01.521Z,10.50
2019-05-09T05:55:07.618Z,10.50
2019-05-09T05:56:12.972Z,10.60
2019-05-09T05:57:18.198Z,10.60
2019-05-09T05:58:23.365Z,10.70
2019-05-09T05:59:29.402Z,10.70
2019-05-09T06:00:37.806Z,10.70
2019-05-09T06:01:43.205Z,10.70
2019-05-09T06:02:48.057Z,10.70
2019-05-09T06:03:53.176Z,10.70
2019-05-09T06:05:00.708Z,10.70
2019-05-09T06:06:08.843Z,10.80
2019-05-09T06:07:13.553Z,10.80
2019-05-09T06:08:19.399Z,10.80
2019-05-09T06:09:24.596Z,10.80
2019-05-09T06:10:29.385Z,10.80
2019-05-09T06:11:39.001Z,10.90
2019-05-09T06:12:43.908Z,10.90
2019-05-09T06:13:56.950Z,10.90
2019-05-09T06:14:55.087Z,10.90
2019-05-09T06:16:00.083Z,10.90
2019-05-09T06:17:07.634Z,10.90
2019-05-09T06:18:12.914Z,11.00
2019-05-09T06:19:19.984Z,11.00
2019-05-09T06:20:38.573Z,11.00
2019-05-09T06:21:52.221Z,11.00
2019-05-09T06:22:58.529Z,11.00
2019-05-09T06:24:08.471Z,11.00
2019-05-09T06:25:14.055Z,11.00
2019-05-09T06:26:19.669Z,11.10
2019-05-09T06:27:24.441Z,11.10
2019-05-09T06:28:29.466Z,11.10
2019-05-09T06:29:34.697Z,11.10
2019-05-09T06:30:41.513Z,11.10
2019-05-09T06:31:50.475Z,11.20
2019-05-09T06:32:57.842Z,11.20
2019-05-09T06:34:01.885Z,11.20
2019-05-09T06:35:10.533Z,11.20
2019-05-09T06:36:15.345Z,11.20
2019-05-09T06:37:20.330Z,11.20
2019-05-09T06:38:28.251Z,11.20
2019-05-09T06:39:33.225Z,11.20
2019-05-09T06:40:41.189Z,11.20
2019-05-09T06:41:48.242Z,11.20
2019-05-09T06:42:55.531Z,11.30
2019-05-09T06:44:16.943Z,11.30
2019-05-09T06:45:42.913Z,11.30
2019-05-09T06:46:58.410Z,11.30
2019-05-09T06:48:04.186Z,11.30
2019-05-09T06:49:27.969Z,11.40
2019-05-09T06:50:27.355Z,11.40
2019-05-09T06:51:35.125Z,11.40
2019-05-09T06:52:43.096Z,11.40
2019-05-09T06:53:48.843Z,11.40
2019-05-09T06:54:54.101Z,11.50
2019-05-09T06:56:01.300Z,11.50
2019-05-09T06:57:08.017Z,11.50
2019-05-09T06:58:30.635Z,11.60
2019-05-09T06:59:38.008Z,11.60
2019-05-09T07:00:50.304Z,11.60
2019-05-09T07:02:00.072Z,11.60
2019-05-09T07:03:09.413Z,11.60
2019-05-09T07:04:22.946Z,11.70
2019-05-09T07:05:40.915Z,11.70
2019-05-09T07:06:58.805Z,11.70
2019-05-09T07:08:27.288Z,11.80
2019-05-09T07:09:52.181Z,12.00
2019-05-09T07:10:58.436Z,11.90
2019-05-09T07:12:03.518Z,12.00
2019-05-09T07:13:08.683Z,12.00
2019-05-09T07:14:38.357Z,12.00
2019-05-09T07:15:41.053Z,12.00
2019-05-09T07:16:52.939Z,12.10
2019-05-09T07:17:57.736Z,12.10
2019-05-09T07:19:04.187Z,12.10
2019-05-09T07:20:12.502Z,12.20
2019-05-09T07:21:18.915Z,12.20
2019-05-09T07:22:48.968Z,12.20
2019-05-09T07:23:54.102Z,12.20
2019-05-09T07:25:11.436Z,12.30
2019-05-09T07:26:24.317Z,12.30
2019-05-09T07:27:38.935Z,12.30
2019-05-09T07:28:42.212Z,12.30
2019-05-09T07:29:48.102Z,12.40
2019-05-09T07:31:30.979Z,12.40
2019-05-09T07:32:42.362Z,12.40
2019-05-09T07:34:11.804Z,12.40
2019-05-09T07:35:18.672Z,12.40
2019-05-09T07:36:24.007Z,12.50
2019-05-09T07:37:32.286Z,12.50
2019-05-09T07:38:42.624Z,12.50
2019-05-09T07:39:48.420Z,12.60
2019-05-09T07:40:53.481Z,12.60
2019-05-09T07:41:58.501Z,12.60
2019-05-09T07:43:03.690Z,12.60
2019-05-09T07:44:10.155Z,12.60
2019-05-09T07:45:15.159Z,12.60
2019-05-09T07:46:34.543Z,12.60
2019-05-09T07:47:40.305Z,12.60
2019-05-09T07:48:48.188Z,12.70
2019-05-09T07:49:59.189Z,12.70
2019-05-09T07:51:08.028Z,12.70
2019-05-09T07:52:18.518Z,12.70
2019-05-09T07:53:20.680Z,12.70
2019-05-09T07:54:29.273Z,12.70
2019-05-09T07:55:38.020Z,12.70
2019-05-09T07:56:48.481Z,12.70
2019-05-09T07:57:55.747Z,12.70
2019-05-09T07:59:03.153Z,12.80
2019-05-09T08:00:09.589Z,12.80
2019-05-09T08:01:14.435Z,12.80
2019-05-09T08:02:22.370Z,12.80
2019-05-09T08:03:27.703Z,12.80
2019-05-09T08:04:34.004Z,12.80
2019-05-09T08:05:39.967Z,12.80
2019-05-09T08:06:48.658Z,12.80
2019-05-09T08:07:55.012Z,12.80
2019-05-09T08:09:00.722Z,12.80
2019-05-09T08:10:30.619Z,12.80
2019-05-09T08:11:32.433Z,12.80
2019-05-09T08:12:38.934Z,12.80
2019-05-09T08:13:45.152Z,12.80
2019-05-09T08:15:07.359Z,12.80
2019-05-09T08:16:02.774Z,12.80
2019-05-09T08:17:14.272Z,12.80
2019-05-09T08:18:23.990Z,12.80
2019-05-09T08:19:31.130Z,12.80
2019-05-09T08:20:40.739Z,12.80
2019-05-09T08:21:47.815Z,12.80
2019-05-09T08:22:57.809Z,12.70
2019-05-09T08:23:58.757Z,12.70
2019-05-09T08:25:03.869Z,12.70
2019-05-09T08:26:18.662Z,12.70
2019-05-09T08:27:24.712Z,12.70
2019-05-09T08:28:38.874Z,12.70
2019-05-09T08:30:17.984Z,12.80
2019-05-09T08:32:10.692Z,12.80
2019-05-09T08:33:12.129Z,12.80
2019-05-09T08:34:28.427Z,12.80
2019-05-09T08:35:35.092Z,12.80
2019-05-09T08:36:39.858Z,12.80
2019-05-09T08:37:52.394Z,12.80
2019-05-09T08:39:00.224Z,12.80
2019-05-09T08:40:08.394Z,12.80
2019-05-09T08:41:14.769Z,12.80
2019-05-09T08:42:20.095Z,12.80
2019-05-09T08:43:28.382Z,12.80
2019-05-09T08:44:33.697Z,12.80
2019-05-09T08:45:38.685Z,12.80
2019-05-09T08:46:43.495Z,12.80
2019-05-09T08:47:50.883Z,12.70
2019-05-09T08:49:00.917Z,12.80
2019-05-09T08:50:22.322Z,12.80
2019-05-09T08:51:50.623Z,12.90
2019-05-09T08:52:45.275Z,12.90
2019-05-09T08:53:50.464Z,12.90
2019-05-09T08:55:19.928Z,13.00
2019-05-09T08:56:09.800Z,13.00
2019-05-09T08:57:14.586Z,13.00
2019-05-09T08:58:22.113Z,13.00
2019-05-09T08:59:29.680Z,13.00
2019-05-09T09:00:46.043Z,13.00
2019-05-09T09:02:11.376Z,13.10
2019-05-09T09:03:00.087Z,13.10
2019-05-09T09:04:08.124Z,13.20
2019-05-09T09:05:18.466Z,13.20
2019-05-09T09:06:23.017Z,13.20
2019-05-09T09:07:31.473Z,13.30
2019-05-09T09:08:37.968Z,13.30
2019-05-09T09:09:44.230Z,13.30
2019-05-09T09:10:53.448Z,13.30
2019-05-09T09:12:00.512Z,13.30
2019-05-09T09:13:08.816Z,13.40
2019-05-09T09:14:18.384Z,13.40
2019-05-09T09:16:15.013Z,13.40
2019-05-09T09:16:51.262Z,13.50
2019-05-09T09:18:05.687Z,13.50
2019-05-09T09:19:14.767Z,13.50
2019-05-09T09:20:24.086Z,13.50
2019-05-09T09:21:33.265Z,13.50
2019-05-09T09:22:38.993Z,13.50
2019-05-09T09:23:54.388Z,13.50
2019-05-09T09:25:02.741Z,13.50
2019-05-09T09:28:57.813Z,13.40
2019-05-09T09:30:16.405Z,13.40
2019-05-09T09:31:10.278Z,13.40
2019-05-09T09:32:15.319Z,13.40
2019-05-09T09:33:20.834Z,13.40
2019-05-09T09:34:29.950Z,13.40
2019-05-09T09:35:40.515Z,13.40
2019-05-09T09:36:47.907Z,13.40
2019-05-09T09:37:57.764Z,13.40
2019-05-09T09:39:10.052Z,13.40
2019-05-09T09:40:17.673Z,13.40
2019-05-09T09:41:29.623Z,13.40
2019-05-09T09:42:34.624Z,13.50
2019-05-09T09:43:42.138Z,13.40
2019-05-09T09:44:49.156Z,13.40
2019-05-09T09:46:10.101Z,13.40
2019-05-09T09:47:08.329Z,13.50
2019-05-09T09:48:13.823Z,13.40
2019-05-09T09:49:21.824Z,13.40
2019-05-09T09:50:27.615Z,13.40
2019-05-09T09:51:35.062Z,13.40
2019-05-09T09:52:40.132Z,13.40
2019-05-09T09:53:50.323Z,13.40
2019-05-09T09:54:59.296Z,13.30
2019-05-09T09:56:25.040Z,13.30
2019-05-09T09:57:35.197Z,13.30
2019-05-09T09:58:40.213Z,13.30
2019-05-09T10:00:03.025Z,13.30
2019-05-09T10:01:18.312Z,13.30
2019-05-09T10:02:28.051Z,13.20
2019-05-09T10:03:36.342Z,13.30
2019-05-09T10:04:41.588Z,13.20
2019-05-09T10:05:49.478Z,13.30
2019-05-09T10:06:54.820Z,13.20
2019-05-09T10:08:00.091Z,13.20
2019-05-09T10:09:09.371Z,13.20
2019-05-09T10:10:43.487Z,13.20
2019-05-09T10:11:48.736Z,13.20
2019-05-09T10:12:54.429Z,13.20
2019-05-09T10:13:59.527Z,13.20
2019-05-09T10:15:24.400Z,13.20
2019-05-09T10:16:52.293Z,13.20
2019-05-09T10:18:18.113Z,13.20
2019-05-09T10:19:29.974Z,13.20
2019-05-09T10:20:43.845Z,13.20
2019-05-09T10:21:51.806Z,13.10
2019-05-09T10:23:03.367Z,13.20
2019-05-09T10:24:07.988Z,13.20
2019-05-09T10:25:13.161Z,13.20
2019-05-09T10:26:19.602Z,13.20
2019-05-09T10:27:31.844Z,13.20
2019-05-09T10:28:45.270Z,13.20
2019-05-09T10:29:49.020Z,13.20
2019-05-09T10:30:54.226Z,13.30
2019-05-09T10:32:00.302Z,13.20
2019-05-09T10:33:05.156Z,13.10
2019-05-09T10:34:11.183Z,13.20
2019-05-09T10:35:23.654Z,13.20
2019-05-09T10:36:28.560Z,13.20
2019-05-09T10:37:33.566Z,13.20
2019-05-09T10:38:39.251Z,13.20
2019-05-09T10:39:44.828Z,13.20
2019-05-09T10:40:53.142Z,13.10
2019-05-09T10:41:58.288Z,13.20
2019-05-09T10:43:34.484Z,13.30
2019-05-09T10:44:43.935Z,13.30
2019-05-09T10:46:21.636Z,13.30
2019-05-09T10:47:29.479Z,13.40
2019-05-09T10:48:38.674Z,13.40
2019-05-09T10:49:44.426Z,13.40
2019-05-09T10:50:53.889Z,13.40
2019-05-09T10:52:21.596Z,13.40
2019-05-09T10:53:31.221Z,13.40
2019-05-09T10:54:42.196Z,13.40
2019-05-09T10:55:50.277Z,13.40
2019-05-09T10:56:58.186Z,13.50
2019-05-09T10:58:08.102Z,13.50
2019-05-09T10:59:13.268Z,13.60
2019-05-09T11:00:22.612Z,13.70
2019-05-09T11:01:31.555Z,13.80
2019-05-09T11:02:37.762Z,13.90
2019-05-09T11:03:42.751Z,14.00
2019-05-09T11:04:49.149Z,14.00
2019-05-09T11:06:01.387Z,14.10
2019-05-09T11:07:08.094Z,14.10
2019-05-09T11:08:18.663Z,14.20
2019-05-09T11:09:23.822Z,14.30
2019-05-09T11:10:35.775Z,14.40
2019-05-09T11:11:41.113Z,14.50
2019-05-09T11:12:47.924Z,14.60
2019-05-09T11:13:53.009Z,14.60
2019-05-09T11:15:03.613Z,14.70
2019-05-09T11:16:08.443Z,14.70
2019-05-09T11:17:18.505Z,14.80
2019-05-09T11:18:31.446Z,14.90
2019-05-09T11:19:48.241Z,14.90
2019-05-09T11:21:00.868Z,15.00
2019-05-09T11:22:14.306Z,15.00
2019-05-09T11:23:19.455Z,15.10
2019-05-09T11:24:40.538Z,15.00
2019-05-09T11:25:33.644Z,15.00
2019-05-09T11:26:45.287Z,15.00
2019-05-09T11:28:06.790Z,15.00
2019-05-09T11:28:58.964Z,14.90
2019-05-09T11:30:10.370Z,14.80
2019-05-09T11:31:18.533Z,14.80
2019-05-09T11:32:24.876Z,14.70
2019-05-09T11:33:33.867Z,14.70
2019-05-09T11:34:48.591Z,14.60
2019-05-09T11:35:54.476Z,14.60
2019-05-09T11:37:04.066Z,14.60
2019-05-09T11:38:11.753Z,14.50
2019-05-09T11:39:35.567Z,14.60
2019-05-09T11:40:31.520Z,14.60
2019-05-09T11:41:38.334Z,14.60
2019-05-09T11:42:49.292Z,14.70
2019-05-09T11:44:01.365Z,14.80
2019-05-09T11:45:10.652Z,14.90
2019-05-09T11:46:38.275Z,14.90
2019-05-09T11:48:02.294Z,14.90
2019-05-09T11:49:09.056Z,15.00
2019-05-09T11:50:23.212Z,15.00
2019-05-09T11:51:30.424Z,15.00
2019-05-09T11:52:38.268Z,15.00
2019-05-09T11:53:48.489Z,15.00
2019-05-09T11:54:58.018Z,15.00
2019-05-09T11:56:08.204Z,15.00
2019-05-09T11:57:13.275Z,15.10
2019-05-09T11:58:23.426Z,15.10
2019-05-09T11:59:28.612Z,15.10
2019-05-09T12:00:33.589Z,15.20
2019-05-09T12:01:39.755Z,15.20
2019-05-09T12:03:04.288Z,15.20
2019-05-09T12:04:10.615Z,15.30
2019-05-09T12:05:20.585Z,15.30
2019-05-09T12:06:25.358Z,15.30
2019-05-09T12:07:33.422Z,15.30
2019-05-09T12:09:08.735Z,15.30
2019-05-09T12:10:15.247Z,15.30
2019-05-09T12:11:23.188Z,15.50
2019-05-09T12:12:31.048Z,15.50
2019-05-09T12:13:38.063Z,15.50
2019-05-09T12:14:54.941Z,15.50
2019-05-09T12:16:10.676Z,15.50
2019-05-09T12:17:19.294Z,15.50
2019-05-09T12:18:28.690Z,15.50
2019-05-09T12:19:38.035Z,15.50
2019-05-09T12:20:41.960Z,15.50
2019-05-09T12:21:49.984Z,15.50
2019-05-09T12:22:54.744Z,15.40
2019-05-09T12:24:00.553Z,15.40
2019-05-09T12:25:08.391Z,15.30
2019-05-09T12:26:18.583Z,15.30
2019-05-09T12:27:23.447Z,15.20
2019-05-09T12:28:28.260Z,15.20
2019-05-09T12:29:39.851Z,15.10
2019-05-09T12:30:48.880Z,15.10
2019-05-09T12:31:56.977Z,15.00
2019-05-09T12:33:01.885Z,15.00
2019-05-09T12:34:19.379Z,14.90
2019-05-09T12:35:33.889Z,14.80
2019-05-09T12:36:39.776Z,14.90
2019-05-09T12:37:48.413Z,14.80
2019-05-09T12:38:54.066Z,14.80
2019-05-09T12:40:08.321Z,14.80
2019-05-09T12:41:13.525Z,14.70
2019-05-09T12:42:19.277Z,14.80
2019-05-09T12:43:24.669Z,14.80
2019-05-09T12:44:30.705Z,14.70
2019-05-09T12:45:35.888Z,14.70
2019-05-09T12:46:43.211Z,14.70
2019-05-09T12:47:48.795Z,14.70
2019-05-09T12:48:59.253Z,14.60
2019-05-09T12:50:04.948Z,14.70
2019-05-09T12:51:12.442Z,14.60
2019-05-09T12:52:18.706Z,14.60
2019-05-09T12:53:31.063Z,14.60
2019-05-09T12:54:38.789Z,14.60
2019-05-09T12:55:44.358Z,14.60
2019-05-09T12:56:59.120Z,14.60
2019-05-09T12:58:15.027Z,14.60
2019-05-09T12:59:24.016Z,14.50
2019-05-09T13:00:35.211Z,14.50
2019-05-09T13:01:48.895Z,14.50
2019-05-09T13:02:52.759Z,14.50
2019-05-09T13:03:58.300Z,14.50
2019-05-09T13:05:08.073Z,14.50
2019-05-09T13:06:19.575Z,14.50
2019-05-09T13:07:29.863Z,14.50
2019-05-09T13:08:38.507Z,14.40
2019-05-09T13:09:58.258Z,14.40
2019-05-09T13:11:07.819Z,14.40
2019-05-09T13:12:10.712Z,14.40
2019-05-09T13:13:18.402Z,14.40
2019-05-09T13:14:28.571Z,14.40
2019-05-09T13:15:42.434Z,14.40
2019-05-09T13:17:00.191Z,14.40
2019-05-09T13:18:21.659Z,14.40
2019-05-09T13:19:22.357Z,14.40
2019-05-09T13:20:28.610Z,14.40
2019-05-09T13:21:39.018Z,14.50
2019-05-09T13:22:43.991Z,14.40
2019-05-09T13:23:54.373Z,14.50
2019-05-09T13:25:04.231Z,14.50
2019-05-09T13:26:18.748Z,14.50
2019-05-09T13:27:43.173Z,14.60
2019-05-09T13:28:49.490Z,14.60
2019-05-09T13:29:56.344Z,14.70
2019-05-09T13:31:08.263Z,14.80
2019-05-09T13:32:18.070Z,14.80
2019-05-09T13:33:33.340Z,14.90
2019-05-09T13:35:02.690Z,14.90
2019-05-09T13:36:15.611Z,15.00
2019-05-09T13:37:29.459Z,15.00
2019-05-09T13:38:37.748Z,15.10
2019-05-09T13:39:48.848Z,15.10
2019-05-09T13:40:54.219Z,15.10
2019-05-09T13:41:59.174Z,15.10
2019-05-09T13:43:15.105Z,15.10
2019-05-09T13:44:18.186Z,15.10
2019-05-09T13:45:25.354Z,15.10
2019-05-09T13:46:33.720Z,15.00
2019-05-09T13:47:39.160Z,14.90
2019-05-09T13:49:04.494Z,15.00
2019-05-09T13:49:51.240Z,14.90
2019-05-09T13:50:57.778Z,14.90
2019-05-09T13:52:15.054Z,14.80
2019-05-09T13:53:21.498Z,14.90
2019-05-09T13:54:38.262Z,14.90
2019-05-09T13:56:00.452Z,14.80
2019-05-09T13:57:08.978Z,14.80
2019-05-09T13:58:19.807Z,14.80
2019-05-09T13:59:37.578Z,14.80
2019-05-09T14:00:58.906Z,14.80
2019-05-09T14:02:01.138Z,14.80
2019-05-09T14:03:08.324Z,14.80
2019-05-09T14:04:16.199Z,14.80
2019-05-09T14:05:29.114Z,14.80
2019-05-09T14:06:40.661Z,14.80
2019-05-09T14:08:09.099Z,14.80
2019-05-09T14:09:29.421Z,14.70
2019-05-09T14:10:55.450Z,14.70
2019-05-09T14:12:09.290Z,14.70
2019-05-09T14:13:32.459Z,14.70
2019-05-09T14:14:38.428Z,14.70
2019-05-09T14:16:14.416Z,14.70
2019-05-09T14:17:44.640Z,14.70
2019-05-09T14:19:26.082Z,14.80
2019-05-09T14:21:00.434Z,14.80
2019-05-09T14:22:33.821Z,14.80
2019-05-09T14:23:58.952Z,14.80
2019-05-09T14:24:51.472Z,14.80
2019-05-09T14:26:01.483Z,14.80
2019-05-09T14:27:11.471Z,14.80
2019-05-09T14:28:19.702Z,14.80
2019-05-09T14:29:30.889Z,14.90
2019-05-09T14:30:41.390Z,14.90
2019-05-09T14:33:08.005Z,14.90
2019-05-09T14:34:26.342Z,14.90
2019-05-09T14:38:57.999Z,15.00
2019-05-09T14:40:47.453Z,15.00
2019-05-09T14:41:54.199Z,15.10
2019-05-09T14:43:09.139Z,15.10
2019-05-09T14:44:14.250Z,15.10
2019-05-09T14:45:19.107Z,15.10
2019-05-09T14:46:24.726Z,15.10
2019-05-09T14:47:32.186Z,15.10
2019-05-09T14:48:40.338Z,15.10
2019-05-09T14:49:51.684Z,15.10
2019-05-09T14:50:58.318Z,15.10
2019-05-09T14:52:08.038Z,15.10
2019-05-09T14:53:42.049Z,15.10
2019-05-09T14:54:52.796Z,15.10
2019-05-09T14:56:12.260Z,15.00
2019-05-09T14:57:38.686Z,15.00
2019-05-09T14:58:57.927Z,15.00
2019-05-09T15:00:18.756Z,15.00
2019-05-09T15:01:52.221Z,14.90
2019-05-09T15:08:41.637Z,14.80
2019-05-09T15:09:59.739Z,14.80
2019-05-09T15:11:28.137Z,14.70
2019-05-09T15:12:49.523Z,14.70
2019-05-09T15:14:51.598Z,14.60
2019-05-09T15:16:24.197Z,14.60
2019-05-09T15:17:32.232Z,14.60
2019-05-09T15:18:58.181Z,14.60
2019-05-09T15:20:00.662Z,14.60
2019-05-09T15:21:42.363Z,14.60
2019-05-09T15:23:19.715Z,14.60
2019-05-09T15:24:28.574Z,14.60
2019-05-09T15:25:37.179Z,14.60
2019-05-09T15:26:47.920Z,14.50
2019-05-09T15:31:18.107Z,14.50
2019-05-09T15:32:30.980Z,14.50
2019-05-09T15:33:38.702Z,14.50
2019-05-09T15:35:13.188Z,14.50
2019-05-09T15:36:27.840Z,14.50